West Branch, Iowa
Current Conditions -  °F | °C
As of 8:52 PM on Friday 24 Oct 2014 (Local Time) from KIOW Reporting Station
Moderate Fog Moderate Fog  
Wind Chill: 54°   Ceiling: 800
Heat Index: 54°   Visibility: 0.25mi
Dew Point: 54°   Wind: 0mph
Humidity: 100%   Direction: NA
Pressure: 29.96"   Gusts: NA
Location:  41.67°N, 91.35°W
Report Text: KIOW 250152Z AUTO 00000KT 1/4SM FG BKN008 OVC027 12/12 A2996 RMK AO2 SLP146 T01220122
Loading
Personal Weather Stations






























Interactive Weather Map
Tropical Storm Tracking
New forecast layout! Learn more

10-Day Weather Forecast

Advertisements
Track Severe Weather on mobile